sensor_id;sensor_type;location;lat;lon;timestamp;P1;durP1;ratioP1;P2;durP2;ratioP2
83096;SDS011;72968;49.460;11.004;2023-11-19T00:02:06;9.90;;;5.18;;
83096;SDS011;72968;49.460;11.004;2023-11-19T00:04:38;9.68;;;5.10;;
83096;SDS011;72968;49.460;11.004;2023-11-19T00:07:11;7.55;;;4.75;;
83096;SDS011;72968;49.460;11.004;2023-11-19T00:09:44;9.82;;;4.85;;
83096;SDS011;72968;49.460;11.004;2023-11-19T00:12:16;7.95;;;4.40;;
83096;SDS011;72968;49.460;11.004;2023-11-19T00:14:48;7.05;;;4.10;;
83096;SDS011;72968;49.460;11.004;2023-11-19T00:17:20;8.18;;;4.60;;
83096;SDS011;72968;49.460;11.004;2023-11-19T00:19:52;12.90;;;6.10;;
83096;SDS011;72968;49.460;11.004;2023-11-19T00:22:23;11.90;;;5.28;;
83096;SDS011;72968;49.460;11.004;2023-11-19T00:24:57;9.30;;;5.30;;
83096;SDS011;72968;49.460;11.004;2023-11-19T00:27:30;10.55;;;5.43;;
83096;SDS011;72968;49.460;11.004;2023-11-19T00:30:02;12.43;;;5.32;;
83096;SDS011;72968;49.460;11.004;2023-11-19T00:32:35;8.57;;;4.25;;
83096;SDS011;72968;49.460;11.004;2023-11-19T00:35:08;10.02;;;4.40;;
83096;SDS011;72968;49.460;11.004;2023-11-19T00:37:40;7.55;;;4.15;;
83096;SDS011;72968;49.460;11.004;2023-11-19T00:40:13;8.18;;;4.65;;
83096;SDS011;72968;49.460;11.004;2023-11-19T00:42:47;9.15;;;5.07;;
83096;SDS011;72968;49.460;11.004;2023-11-19T00:45:19;9.48;;;5.35;;
83096;SDS011;72968;49.460;11.004;2023-11-19T00:47:50;9.23;;;5.30;;
83096;SDS011;72968;49.460;11.004;2023-11-19T00:50:22;10.48;;;5.97;;
83096;SDS011;72968;49.460;11.004;2023-11-19T00:52:54;11.65;;;5.93;;
83096;SDS011;72968;49.460;11.004;2023-11-19T00:55:25;11.02;;;5.25;;
83096;SDS011;72968;49.460;11.004;2023-11-19T00:57:58;10.60;;;5.18;;
83096;SDS011;72968;49.460;11.004;2023-11-19T01:00:30;9.27;;;5.05;;
83096;SDS011;72968;49.460;11.004;2023-11-19T01:03:03;8.68;;;4.63;;
83096;SDS011;72968;49.460;11.004;2023-11-19T01:05:38;6.75;;;3.60;;
83096;SDS011;72968;49.460;11.004;2023-11-19T01:08:10;10.93;;;5.15;;
83096;SDS011;72968;49.460;11.004;2023-11-19T01:10:43;8.98;;;5.25;;
83096;SDS011;72968;49.460;11.004;2023-11-19T01:16:05;8.07;;;4.70;;
83096;SDS011;72968;49.460;11.004;2023-11-19T01:18:37;9.57;;;4.43;;
83096;SDS011;72968;49.460;11.004;2023-11-19T01:21:08;11.75;;;5.38;;
83096;SDS011;72968;49.460;11.004;2023-11-19T01:23:40;8.20;;;4.38;;
83096;SDS011;72968;49.460;11.004;2023-11-19T01:26:13;10.68;;;5.53;;
83096;SDS011;72968;49.460;11.004;2023-11-19T01:28:44;11.95;;;5.80;;
83096;SDS011;72968;49.460;11.004;2023-11-19T01:31:25;7.60;;;3.72;;
83096;SDS011;72968;49.460;11.004;2023-11-19T01:33:57;8.52;;;4.00;;
83096;SDS011;72968;49.460;11.004;2023-11-19T01:36:30;10.55;;;5.18;;
83096;SDS011;72968;49.460;11.004;2023-11-19T01:39:02;10.05;;;4.63;;
83096;SDS011;72968;49.460;11.004;2023-11-19T01:41:40;9.20;;;4.97;;
83096;SDS011;72968;49.460;11.004;2023-11-19T01:44:26;11.07;;;4.68;;
83096;SDS011;72968;49.460;11.004;2023-11-19T01:46:58;10.88;;;5.50;;
83096;SDS011;72968;49.460;11.004;2023-11-19T01:49:34;9.70;;;5.30;;
83096;SDS011;72968;49.460;11.004;2023-11-19T01:52:05;12.65;;;6.32;;
83096;SDS011;72968;49.460;11.004;2023-11-19T01:54:40;11.98;;;5.88;;
83096;SDS011;72968;49.460;11.004;2023-11-19T01:57:11;11.63;;;5.30;;
83096;SDS011;72968;49.460;11.004;2023-11-19T01:59:43;12.93;;;5.53;;
83096;SDS011;72968;49.460;11.004;2023-11-19T02:02:17;13.93;;;5.53;;
83096;SDS011;72968;49.460;11.004;2023-11-19T02:04:50;11.60;;;5.38;;
83096;SDS011;72968;49.460;11.004;2023-11-19T02:07:23;13.35;;;5.72;;
83096;SDS011;72968;49.460;11.004;2023-11-19T02:09:56;12.02;;;5.85;;
83096;SDS011;72968;49.460;11.004;2023-11-19T02:12:30;11.40;;;6.07;;
83096;SDS011;72968;49.460;11.004;2023-11-19T02:15:04;10.40;;;4.88;;
83096;SDS011;72968;49.460;11.004;2023-11-19T02:17:39;12.20;;;5.68;;
83096;SDS011;72968;49.460;11.004;2023-11-19T02:20:11;14.75;;;5.90;;
83096;SDS011;72968;49.460;11.004;2023-11-19T02:22:45;12.45;;;5.82;;
83096;SDS011;72968;49.460;11.004;2023-11-19T02:25:19;12.98;;;5.38;;
83096;SDS011;72968;49.460;11.004;2023-11-19T02:28:01;11.10;;;4.97;;
83096;SDS011;72968;49.460;11.004;2023-11-19T02:30:34;12.10;;;5.60;;
83096;SDS011;72968;49.460;11.004;2023-11-19T02:33:06;14.35;;;5.82;;
83096;SDS011;72968;49.460;11.004;2023-11-19T02:35:38;9.30;;;4.55;;
83096;SDS011;72968;49.460;11.004;2023-11-19T02:38:10;12.85;;;6.47;;
83096;SDS011;72968;49.460;11.004;2023-11-19T02:40:44;12.02;;;4.80;;
83096;SDS011;72968;49.460;11.004;2023-11-19T02:46:08;9.80;;;4.75;;
83096;SDS011;72968;49.460;11.004;2023-11-19T02:48:42;13.65;;;6.25;;
83096;SDS011;72968;49.460;11.004;2023-11-19T02:51:16;10.25;;;4.57;;
83096;SDS011;72968;49.460;11.004;2023-11-19T02:53:48;13.20;;;6.07;;
83096;SDS011;72968;49.460;11.004;2023-11-19T02:56:22;11.90;;;5.30;;
83096;SDS011;72968;49.460;11.004;2023-11-19T02:58:56;14.82;;;6.35;;
83096;SDS011;72968;49.460;11.004;2023-11-19T03:01:29;11.30;;;5.65;;
83096;SDS011;72968;49.460;11.004;2023-11-19T03:04:01;15.20;;;6.45;;
83096;SDS011;72968;49.460;11.004;2023-11-19T03:06:34;13.63;;;5.45;;
83096;SDS011;72968;49.460;11.004;2023-11-19T03:09:05;15.07;;;6.63;;
83096;SDS011;72968;49.460;11.004;2023-11-19T03:11:40;13.55;;;6.43;;
83096;SDS011;72968;49.460;11.004;2023-11-19T03:14:12;11.85;;;6.35;;
83096;SDS011;72968;49.460;11.004;2023-11-19T03:16:46;14.10;;;6.68;;
83096;SDS011;72968;49.460;11.004;2023-11-19T03:19:17;15.55;;;6.72;;
83096;SDS011;72968;49.460;11.004;2023-11-19T03:21:49;13.82;;;6.70;;
83096;SDS011;72968;49.460;11.004;2023-11-19T03:24:22;12.13;;;6.60;;
83096;SDS011;72968;49.460;11.004;2023-11-19T03:26:56;15.07;;;6.45;;
83096;SDS011;72968;49.460;11.004;2023-11-19T03:29:27;14.85;;;6.88;;
83096;SDS011;72968;49.460;11.004;2023-11-19T03:32:01;13.40;;;7.13;;
83096;SDS011;72968;49.460;11.004;2023-11-19T03:34:32;12.60;;;6.22;;
83096;SDS011;72968;49.460;11.004;2023-11-19T03:37:03;18.92;;;7.55;;
83096;SDS011;72968;49.460;11.004;2023-11-19T03:39:35;16.92;;;7.80;;
83096;SDS011;72968;49.460;11.004;2023-11-19T03:42:06;22.83;;;8.05;;
83096;SDS011;72968;49.460;11.004;2023-11-19T03:44:38;13.70;;;5.18;;
83096;SDS011;72968;49.460;11.004;2023-11-19T03:47:11;20.83;;;8.00;;
83096;SDS011;72968;49.460;11.004;2023-11-19T03:49:42;18.25;;;6.95;;
83096;SDS011;72968;49.460;11.004;2023-11-19T03:52:19;19.20;;;8.35;;
83096;SDS011;72968;49.460;11.004;2023-11-19T03:54:50;17.83;;;7.70;;
83096;SDS011;72968;49.460;11.004;2023-11-19T03:57:22;23.02;;;8.63;;
83096;SDS011;72968;49.460;11.004;2023-11-19T03:59:53;25.67;;;7.70;;
83096;SDS011;72968;49.460;11.004;2023-11-19T04:02:27;24.15;;;7.88;;
83096;SDS011;72968;49.460;11.004;2023-11-19T04:04:58;15.00;;;6.15;;
83096;SDS011;72968;49.460;11.004;2023-11-19T04:07:30;17.38;;;7.53;;
83096;SDS011;72968;49.460;11.004;2023-11-19T04:10:01;20.17;;;7.30;;
83096;SDS011;72968;49.460;11.004;2023-11-19T04:12:34;21.52;;;8.38;;
83096;SDS011;72968;49.460;11.004;2023-11-19T04:15:06;25.77;;;8.50;;
83096;SDS011;72968;49.460;11.004;2023-11-19T04:17:40;23.45;;;8.07;;
83096;SDS011;72968;49.460;11.004;2023-11-19T04:20:12;21.48;;;7.47;;
83096;SDS011;72968;49.460;11.004;2023-11-19T04:22:44;21.60;;;8.27;;
83096;SDS011;72968;49.460;11.004;2023-11-19T04:25:15;22.58;;;7.50;;
83096;SDS011;72968;49.460;11.004;2023-11-19T04:27:50;23.73;;;8.38;;
83096;SDS011;72968;49.460;11.004;2023-11-19T04:30:25;19.40;;;8.85;;
83096;SDS011;72968;49.460;11.004;2023-11-19T04:33:03;27.35;;;8.80;;
83096;SDS011;72968;49.460;11.004;2023-11-19T04:35:37;32.03;;;9.73;;
83096;SDS011;72968;49.460;11.004;2023-11-19T04:38:09;23.17;;;8.50;;
83096;SDS011;72968;49.460;11.004;2023-11-19T04:40:41;29.13;;;9.02;;
83096;SDS011;72968;49.460;11.004;2023-11-19T04:43:13;28.58;;;9.25;;
83096;SDS011;72968;49.460;11.004;2023-11-19T04:45:45;24.60;;;8.88;;
83096;SDS011;72968;49.460;11.004;2023-11-19T04:48:19;28.77;;;10.52;;
83096;SDS011;72968;49.460;11.004;2023-11-19T04:53:53;28.80;;;9.55;;
83096;SDS011;72968;49.460;11.004;2023-11-19T04:56:26;26.88;;;9.65;;
83096;SDS011;72968;49.460;11.004;2023-11-19T04:58:59;23.85;;;9.38;;
83096;SDS011;72968;49.460;11.004;2023-11-19T05:01:32;27.00;;;10.40;;
83096;SDS011;72968;49.460;11.004;2023-11-19T05:04:05;28.55;;;9.43;;
83096;SDS011;72968;49.460;11.004;2023-11-19T05:06:37;25.55;;;9.20;;
83096;SDS011;72968;49.460;11.004;2023-11-19T05:09:09;22.80;;;8.88;;
83096;SDS011;72968;49.460;11.004;2023-11-19T05:11:44;20.48;;;8.00;;
83096;SDS011;72968;49.460;11.004;2023-11-19T05:14:21;21.48;;;7.90;;
83096;SDS011;72968;49.460;11.004;2023-11-19T05:17:06;20.73;;;8.07;;
83096;SDS011;72968;49.460;11.004;2023-11-19T05:19:40;25.25;;;8.65;;
83096;SDS011;72968;49.460;11.004;2023-11-19T05:22:17;23.58;;;8.05;;
83096;SDS011;72968;49.460;11.004;2023-11-19T05:24:51;23.48;;;8.77;;
83096;SDS011;72968;49.460;11.004;2023-11-19T05:27:22;22.38;;;9.10;;
83096;SDS011;72968;49.460;11.004;2023-11-19T05:29:54;18.88;;;7.53;;
83096;SDS011;72968;49.460;11.004;2023-11-19T05:32:26;22.05;;;8.80;;
83096;SDS011;72968;49.460;11.004;2023-11-19T05:35:03;23.17;;;8.55;;
83096;SDS011;72968;49.460;11.004;2023-11-19T05:37:37;25.50;;;9.68;;
83096;SDS011;72968;49.460;11.004;2023-11-19T05:40:24;24.70;;;8.50;;
83096;SDS011;72968;49.460;11.004;2023-11-19T05:43:25;18.88;;;7.78;;
83096;SDS011;72968;49.460;11.004;2023-11-19T05:46:04;22.52;;;7.60;;
83096;SDS011;72968;49.460;11.004;2023-11-19T05:48:36;21.73;;;7.68;;
83096;SDS011;72968;49.460;11.004;2023-11-19T05:51:10;21.25;;;7.78;;
83096;SDS011;72968;49.460;11.004;2023-11-19T05:53:41;26.98;;;7.60;;
83096;SDS011;72968;49.460;11.004;2023-11-19T05:56:13;25.45;;;8.38;;
83096;SDS011;72968;49.460;11.004;2023-11-19T05:58:45;24.05;;;8.60;;
83096;SDS011;72968;49.460;11.004;2023-11-19T06:01:19;27.33;;;8.27;;
83096;SDS011;72968;49.460;11.004;2023-11-19T06:03:50;25.40;;;8.52;;
83096;SDS011;72968;49.460;11.004;2023-11-19T06:06:24;25.15;;;8.55;;
83096;SDS011;72968;49.460;11.004;2023-11-19T06:08:56;25.88;;;8.10;;
83096;SDS011;72968;49.460;11.004;2023-11-19T06:11:27;21.45;;;7.97;;
83096;SDS011;72968;49.460;11.004;2023-11-19T06:13:59;22.52;;;7.65;;
83096;SDS011;72968;49.460;11.004;2023-11-19T06:16:30;21.65;;;7.22;;
83096;SDS011;72968;49.460;11.004;2023-11-19T06:19:02;21.58;;;7.53;;
83096;SDS011;72968;49.460;11.004;2023-11-19T06:21:39;18.08;;;6.82;;
83096;SDS011;72968;49.460;11.004;2023-11-19T06:24:10;22.02;;;7.18;;
83096;SDS011;72968;49.460;11.004;2023-11-19T06:26:43;18.67;;;6.97;;
83096;SDS011;72968;49.460;11.004;2023-11-19T06:29:16;21.33;;;6.72;;
83096;SDS011;72968;49.460;11.004;2023-11-19T06:31:49;20.17;;;6.93;;
83096;SDS011;72968;49.460;11.004;2023-11-19T06:34:21;19.48;;;6.57;;
83096;SDS011;72968;49.460;11.004;2023-11-19T06:36:54;17.83;;;7.05;;
83096;SDS011;72968;49.460;11.004;2023-11-19T06:39:26;14.55;;;6.25;;
83096;SDS011;72968;49.460;11.004;2023-11-19T06:41:58;20.67;;;7.40;;
83096;SDS011;72968;49.460;11.004;2023-11-19T06:44:30;18.65;;;7.60;;
83096;SDS011;72968;49.460;11.004;2023-11-19T06:47:02;22.27;;;7.88;;
83096;SDS011;72968;49.460;11.004;2023-11-19T06:49:33;24.85;;;11.10;;
83096;SDS011;72968;49.460;11.004;2023-11-19T06:52:08;24.63;;;11.73;;
83096;SDS011;72968;49.460;11.004;2023-11-19T06:54:39;14.43;;;7.13;;
83096;SDS011;72968;49.460;11.004;2023-11-19T06:57:12;17.98;;;7.20;;
83096;SDS011;72968;49.460;11.004;2023-11-19T06:59:43;18.67;;;6.30;;
83096;SDS011;72968;49.460;11.004;2023-11-19T07:02:15;12.20;;;4.93;;
83096;SDS011;72968;49.460;11.004;2023-11-19T07:04:46;10.48;;;3.72;;
83096;SDS011;72968;49.460;11.004;2023-11-19T07:07:19;11.73;;;3.75;;
83096;SDS011;72968;49.460;11.004;2023-11-19T07:09:52;8.75;;;2.95;;
83096;SDS011;72968;49.460;11.004;2023-11-19T07:12:24;7.22;;;2.33;;
83096;SDS011;72968;49.460;11.004;2023-11-19T07:14:56;7.30;;;2.80;;
83096;SDS011;72968;49.460;11.004;2023-11-19T07:17:36;3.35;;;1.35;;
83096;SDS011;72968;49.460;11.004;2023-11-19T07:20:08;2.88;;;1.33;;
83096;SDS011;72968;49.460;11.004;2023-11-19T07:22:41;4.38;;;1.45;;
83096;SDS011;72968;49.460;11.004;2023-11-19T07:25:13;6.55;;;1.75;;
83096;SDS011;72968;49.460;11.004;2023-11-19T07:27:46;3.47;;;1.50;;
83096;SDS011;72968;49.460;11.004;2023-11-19T07:30:19;3.50;;;1.10;;
83096;SDS011;72968;49.460;11.004;2023-11-19T07:32:50;2.30;;;1.00;;
83096;SDS011;72968;49.460;11.004;2023-11-19T07:35:24;2.05;;;0.85;;
83096;SDS011;72968;49.460;11.004;2023-11-19T07:37:57;1.75;;;0.85;;
83096;SDS011;72968;49.460;11.004;2023-11-19T07:40:30;1.35;;;0.70;;
83096;SDS011;72968;49.460;11.004;2023-11-19T07:43:01;3.10;;;0.95;;
83096;SDS011;72968;49.460;11.004;2023-11-19T07:45:33;1.73;;;0.63;;
83096;SDS011;72968;49.460;11.004;2023-11-19T07:48:04;2.03;;;0.77;;
83096;SDS011;72968;49.460;11.004;2023-11-19T07:50:36;6.68;;;2.05;;
83096;SDS011;72968;49.460;11.004;2023-11-19T07:53:09;3.72;;;0.95;;
83096;SDS011;72968;49.460;11.004;2023-11-19T07:55:42;0.63;;;0.30;;
83096;SDS011;72968;49.460;11.004;2023-11-19T07:58:14;1.30;;;0.60;;
83096;SDS011;72968;49.460;11.004;2023-11-19T08:00:45;2.13;;;0.70;;
83096;SDS011;72968;49.460;11.004;2023-11-19T08:03:25;1.00;;;0.52;;
83096;SDS011;72968;49.460;11.004;2023-11-19T08:06:10;0.68;;;0.35;;
83096;SDS011;72968;49.460;11.004;2023-11-19T08:08:43;1.13;;;0.60;;
83096;SDS011;72968;49.460;11.004;2023-11-19T08:11:14;1.40;;;0.80;;
83096;SDS011;72968;49.460;11.004;2023-11-19T08:13:46;1.75;;;0.90;;
83096;SDS011;72968;49.460;11.004;2023-11-19T08:16:17;3.53;;;0.80;;
83096;SDS011;72968;49.460;11.004;2023-11-19T08:18:49;1.80;;;0.93;;
83096;SDS011;72968;49.460;11.004;2023-11-19T08:21:20;2.08;;;0.93;;
83096;SDS011;72968;49.460;11.004;2023-11-19T08:23:54;1.75;;;1.30;;
83096;SDS011;72968;49.460;11.004;2023-11-19T08:26:25;2.60;;;1.00;;
83096;SDS011;72968;49.460;11.004;2023-11-19T08:28:57;1.52;;;0.88;;
83096;SDS011;72968;49.460;11.004;2023-11-19T08:31:29;2.05;;;0.77;;
83096;SDS011;72968;49.460;11.004;2023-11-19T08:34:00;2.05;;;1.13;;
83096;SDS011;72968;49.460;11.004;2023-11-19T08:36:32;2.58;;;1.00;;
83096;SDS011;72968;49.460;11.004;2023-11-19T08:39:04;1.50;;;0.82;;
83096;SDS011;72968;49.460;11.004;2023-11-19T08:41:38;3.28;;;0.95;;
83096;SDS011;72968;49.460;11.004;2023-11-19T08:44:11;3.75;;;1.02;;
83096;SDS011;72968;49.460;11.004;2023-11-19T08:46:46;2.05;;;1.25;;
83096;SDS011;72968;49.460;11.004;2023-11-19T08:49:17;5.25;;;1.30;;
83096;SDS011;72968;49.460;11.004;2023-11-19T08:51:50;3.80;;;1.20;;
83096;SDS011;72968;49.460;11.004;2023-11-19T08:54:23;2.15;;;1.00;;
83096;SDS011;72968;49.460;11.004;2023-11-19T08:56:54;2.03;;;0.95;;
83096;SDS011;72968;49.460;11.004;2023-11-19T08:59:27;2.20;;;1.15;;
83096;SDS011;72968;49.460;11.004;2023-11-19T09:01:58;2.75;;;1.00;;
83096;SDS011;72968;49.460;11.004;2023-11-19T09:04:30;2.55;;;1.17;;
83096;SDS011;72968;49.460;11.004;2023-11-19T09:07:01;3.05;;;1.30;;
83096;SDS011;72968;49.460;11.004;2023-11-19T09:09:34;2.63;;;1.30;;
83096;SDS011;72968;49.460;11.004;2023-11-19T09:12:06;3.72;;;1.50;;
83096;SDS011;72968;49.460;11.004;2023-11-19T09:14:38;2.83;;;1.00;;
83096;SDS011;72968;49.460;11.004;2023-11-19T09:17:09;1.60;;;1.00;;
83096;SDS011;72968;49.460;11.004;2023-11-19T09:19:41;2.33;;;1.00;;
83096;SDS011;72968;49.460;11.004;2023-11-19T09:22:12;2.42;;;1.10;;
83096;SDS011;72968;49.460;11.004;2023-11-19T09:24:45;1.55;;;0.90;;
83096;SDS011;72968;49.460;11.004;2023-11-19T09:27:18;1.15;;;0.70;;
83096;SDS011;72968;49.460;11.004;2023-11-19T09:29:49;3.83;;;1.15;;
83096;SDS011;72968;49.460;11.004;2023-11-19T09:32:27;2.10;;;0.68;;
83096;SDS011;72968;49.460;11.004;2023-11-19T09:34:58;2.25;;;1.05;;
83096;SDS011;72968;49.460;11.004;2023-11-19T09:37:30;2.30;;;0.80;;
83096;SDS011;72968;49.460;11.004;2023-11-19T09:40:03;1.90;;;0.80;;
83096;SDS011;72968;49.460;11.004;2023-11-19T09:42:37;2.63;;;1.00;;
83096;SDS011;72968;49.460;11.004;2023-11-19T09:45:12;1.63;;;0.73;;
83096;SDS011;72968;49.460;11.004;2023-11-19T09:47:44;2.75;;;0.75;;
83096;SDS011;72968;49.460;11.004;2023-11-19T09:50:16;4.85;;;1.08;;
83096;SDS011;72968;49.460;11.004;2023-11-19T09:52:48;1.80;;;0.95;;
83096;SDS011;72968;49.460;11.004;2023-11-19T09:55:22;1.83;;;1.00;;
83096;SDS011;72968;49.460;11.004;2023-11-19T09:57:54;2.30;;;0.90;;
83096;SDS011;72968;49.460;11.004;2023-11-19T10:00:27;1.77;;;0.80;;
83096;SDS011;72968;49.460;11.004;2023-11-19T10:02:58;1.65;;;0.70;;
83096;SDS011;72968;49.460;11.004;2023-11-19T10:05:32;1.95;;;1.10;;
83096;SDS011;72968;49.460;11.004;2023-11-19T10:08:03;0.68;;;0.50;;
83096;SDS011;72968;49.460;11.004;2023-11-19T10:10:36;1.95;;;1.10;;
83096;SDS011;72968;49.460;11.004;2023-11-19T10:13:08;1.23;;;0.70;;
83096;SDS011;72968;49.460;11.004;2023-11-19T10:15:40;1.83;;;0.80;;
83096;SDS011;72968;49.460;11.004;2023-11-19T10:18:13;2.78;;;0.80;;
83096;SDS011;72968;49.460;11.004;2023-11-19T10:20:45;1.95;;;0.70;;
83096;SDS011;72968;49.460;11.004;2023-11-19T10:23:26;3.00;;;0.95;;
83096;SDS011;72968;49.460;11.004;2023-11-19T10:26:03;2.33;;;0.90;;
83096;SDS011;72968;49.460;11.004;2023-11-19T10:28:38;2.92;;;1.10;;
83096;SDS011;72968;49.460;11.004;2023-11-19T10:31:14;4.72;;;1.00;;
83096;SDS011;72968;49.460;11.004;2023-11-19T10:33:45;3.30;;;0.88;;
83096;SDS011;72968;49.460;11.004;2023-11-19T10:36:19;2.88;;;0.80;;
83096;SDS011;72968;49.460;11.004;2023-11-19T10:38:51;2.85;;;0.95;;
83096;SDS011;72968;49.460;11.004;2023-11-19T10:41:28;2.33;;;0.80;;
83096;SDS011;72968;49.460;11.004;2023-11-19T10:43:59;3.00;;;0.63;;
83096;SDS011;72968;49.460;11.004;2023-11-19T10:46:37;1.42;;;0.80;;
83096;SDS011;72968;49.460;11.004;2023-11-19T10:49:10;2.78;;;0.80;;
83096;SDS011;72968;49.460;11.004;2023-11-19T10:51:43;1.25;;;0.70;;
83096;SDS011;72968;49.460;11.004;2023-11-19T10:54:17;1.73;;;0.60;;
83096;SDS011;72968;49.460;11.004;2023-11-19T10:56:58;2.55;;;0.82;;
83096;SDS011;72968;49.460;11.004;2023-11-19T10:59:33;1.48;;;0.80;;
83096;SDS011;72968;49.460;11.004;2023-11-19T11:02:09;3.05;;;1.23;;
83096;SDS011;72968;49.460;11.004;2023-11-19T11:04:44;2.42;;;0.68;;
83096;SDS011;72968;49.460;11.004;2023-11-19T11:07:19;0.93;;;0.55;;
83096;SDS011;72968;49.460;11.004;2023-11-19T11:09:53;1.08;;;0.60;;
83096;SDS011;72968;49.460;11.004;2023-11-19T11:12:27;2.85;;;0.77;;
83096;SDS011;72968;49.460;11.004;2023-11-19T11:15:02;1.77;;;0.60;;
83096;SDS011;72968;49.460;11.004;2023-11-19T11:17:36;2.42;;;0.73;;
83096;SDS011;72968;49.460;11.004;2023-11-19T11:20:10;2.35;;;0.88;;
83096;SDS011;72968;49.460;11.004;2023-11-19T11:22:44;1.58;;;0.60;;
83096;SDS011;72968;49.460;11.004;2023-11-19T11:30:39;2.70;;;1.10;;
83096;SDS011;72968;49.460;11.004;2023-11-19T11:33:17;3.45;;;0.80;;
83096;SDS011;72968;49.460;11.004;2023-11-19T11:38:35;2.25;;;0.57;;
83096;SDS011;72968;49.460;11.004;2023-11-19T11:41:21;3.20;;;0.60;;
83096;SDS011;72968;49.460;11.004;2023-11-19T11:43:57;2.70;;;0.90;;
83096;SDS011;72968;49.460;11.004;2023-11-19T11:46:55;2.75;;;0.90;;
83096;SDS011;72968;49.460;11.004;2023-11-19T11:49:30;2.20;;;0.90;;
83096;SDS011;72968;49.460;11.004;2023-11-19T11:54:45;2.38;;;0.80;;
83096;SDS011;72968;49.460;11.004;2023-11-19T11:57:18;4.63;;;1.35;;
83096;SDS011;72968;49.460;11.004;2023-11-19T11:59:53;2.85;;;1.00;;
83096;SDS011;72968;49.460;11.004;2023-11-19T12:04:57;1.88;;;0.70;;
83096;SDS011;72968;49.460;11.004;2023-11-19T12:07:31;2.65;;;1.00;;
83096;SDS011;72968;49.460;11.004;2023-11-19T12:10:08;3.88;;;1.35;;
83096;SDS011;72968;49.460;11.004;2023-11-19T12:15:14;1.73;;;1.02;;
83096;SDS011;72968;49.460;11.004;2023-11-19T12:17:47;2.42;;;1.27;;
83096;SDS011;72968;49.460;11.004;2023-11-19T12:20:23;2.28;;;1.13;;
83096;SDS011;72968;49.460;11.004;2023-11-19T12:28:16;2.83;;;1.20;;
83096;SDS011;72968;49.460;11.004;2023-11-19T12:30:49;2.25;;;1.48;;
83096;SDS011;72968;49.460;11.004;2023-11-19T12:33:21;2.17;;;0.88;;
83096;SDS011;72968;49.460;11.004;2023-11-19T12:35:54;3.00;;;1.00;;
83096;SDS011;72968;49.460;11.004;2023-11-19T12:38:26;1.98;;;1.17;;
83096;SDS011;72968;49.460;11.004;2023-11-19T12:41:04;2.10;;;0.90;;
83096;SDS011;72968;49.460;11.004;2023-11-19T12:43:35;4.60;;;1.38;;
83096;SDS011;72968;49.460;11.004;2023-11-19T12:46:16;2.25;;;0.85;;
83096;SDS011;72968;49.460;11.004;2023-11-19T12:48:50;1.60;;;0.90;;
83096;SDS011;72968;49.460;11.004;2023-11-19T12:51:25;3.42;;;1.00;;
83096;SDS011;72968;49.460;11.004;2023-11-19T12:54:01;1.83;;;0.68;;
83096;SDS011;72968;49.460;11.004;2023-11-19T12:56:34;2.78;;;0.65;;
83096;SDS011;72968;49.460;11.004;2023-11-19T12:59:12;1.73;;;0.60;;
83096;SDS011;72968;49.460;11.004;2023-11-19T13:01:58;2.88;;;0.80;;
83096;SDS011;72968;49.460;11.004;2023-11-19T13:04:35;2.22;;;0.93;;
83096;SDS011;72968;49.460;11.004;2023-11-19T13:07:09;3.03;;;1.05;;
83096;SDS011;72968;49.460;11.004;2023-11-19T13:09:44;13.55;;;6.80;;
83096;SDS011;72968;49.460;11.004;2023-11-19T13:12:15;11.10;;;5.72;;
83096;SDS011;72968;49.460;11.004;2023-11-19T13:14:50;5.18;;;1.83;;
83096;SDS011;72968;49.460;11.004;2023-11-19T13:17:21;2.13;;;0.80;;
83096;SDS011;72968;49.460;11.004;2023-11-19T13:19:53;2.15;;;0.82;;
83096;SDS011;72968;49.460;11.004;2023-11-19T13:22:29;3.28;;;0.93;;
83096;SDS011;72968;49.460;11.004;2023-11-19T13:25:01;3.30;;;0.98;;
83096;SDS011;72968;49.460;11.004;2023-11-19T13:27:35;2.65;;;0.70;;
83096;SDS011;72968;49.460;11.004;2023-11-19T13:30:06;4.05;;;0.80;;
83096;SDS011;72968;49.460;11.004;2023-11-19T13:32:38;2.55;;;1.00;;
83096;SDS011;72968;49.460;11.004;2023-11-19T13:35:10;2.88;;;0.90;;
83096;SDS011;72968;49.460;11.004;2023-11-19T13:37:43;1.90;;;0.90;;
83096;SDS011;72968;49.460;11.004;2023-11-19T13:40:14;2.42;;;0.90;;
83096;SDS011;72968;49.460;11.004;2023-11-19T13:42:45;1.88;;;1.00;;
83096;SDS011;72968;49.460;11.004;2023-11-19T13:45:17;1.58;;;0.90;;
83096;SDS011;72968;49.460;11.004;2023-11-19T13:47:50;1.77;;;0.88;;
83096;SDS011;72968;49.460;11.004;2023-11-19T13:50:22;2.10;;;0.80;;
83096;SDS011;72968;49.460;11.004;2023-11-19T13:52:56;1.75;;;0.65;;
83096;SDS011;72968;49.460;11.004;2023-11-19T13:55:27;1.65;;;0.65;;
83096;SDS011;72968;49.460;11.004;2023-11-19T13:58:00;4.07;;;0.80;;
83096;SDS011;72968;49.460;11.004;2023-11-19T14:00:31;1.90;;;0.90;;
83096;SDS011;72968;49.460;11.004;2023-11-19T14:03:03;3.35;;;1.55;;
83096;SDS011;72968;49.460;11.004;2023-11-19T14:05:34;6.25;;;4.13;;
83096;SDS011;72968;49.460;11.004;2023-11-19T14:08:07;4.65;;;3.28;;
83096;SDS011;72968;49.460;11.004;2023-11-19T14:10:41;13.23;;;8.20;;
83096;SDS011;72968;49.460;11.004;2023-11-19T14:13:12;2.55;;;1.65;;
83096;SDS011;72968;49.460;11.004;2023-11-19T14:15:45;12.98;;;9.27;;
83096;SDS011;72968;49.460;11.004;2023-11-19T14:18:17;6.78;;;3.55;;
83096;SDS011;72968;49.460;11.004;2023-11-19T14:20:48;5.75;;;3.17;;
83096;SDS011;72968;49.460;11.004;2023-11-19T14:23:21;1.85;;;1.02;;
83096;SDS011;72968;49.460;11.004;2023-11-19T14:25:54;3.55;;;1.58;;
83096;SDS011;72968;49.460;11.004;2023-11-19T14:28:25;2.20;;;0.90;;
83096;SDS011;72968;49.460;11.004;2023-11-19T14:30:57;1.30;;;0.73;;
83096;SDS011;72968;49.460;11.004;2023-11-19T14:33:28;3.25;;;1.58;;
83096;SDS011;72968;49.460;11.004;2023-11-19T14:35:59;6.10;;;2.97;;
83096;SDS011;72968;49.460;11.004;2023-11-19T14:38:32;4.28;;;1.38;;
83096;SDS011;72968;49.460;11.004;2023-11-19T14:41:04;4.18;;;1.88;;
83096;SDS011;72968;49.460;11.004;2023-11-19T14:43:35;3.35;;;1.02;;
83096;SDS011;72968;49.460;11.004;2023-11-19T14:46:06;6.82;;;3.10;;
83096;SDS011;72968;49.460;11.004;2023-11-19T14:48:38;5.13;;;1.50;;
83096;SDS011;72968;49.460;11.004;2023-11-19T14:51:09;2.22;;;1.10;;
83096;SDS011;72968;49.460;11.004;2023-11-19T14:53:42;5.10;;;1.58;;
83096;SDS011;72968;49.460;11.004;2023-11-19T14:56:13;8.95;;;4.63;;
83096;SDS011;72968;49.460;11.004;2023-11-19T14:58:45;4.20;;;1.35;;
83096;SDS011;72968;49.460;11.004;2023-11-19T15:01:16;1.60;;;0.90;;
83096;SDS011;72968;49.460;11.004;2023-11-19T15:03:48;3.40;;;1.73;;
83096;SDS011;72968;49.460;11.004;2023-11-19T15:06:22;3.55;;;1.25;;
83096;SDS011;72968;49.460;11.004;2023-11-19T15:08:55;1.98;;;0.95;;
83096;SDS011;72968;49.460;11.004;2023-11-19T15:11:26;2.50;;;0.90;;
83096;SDS011;72968;49.460;11.004;2023-11-19T15:13:58;3.53;;;1.02;;
83096;SDS011;72968;49.460;11.004;2023-11-19T15:16:31;2.60;;;0.90;;
83096;SDS011;72968;49.460;11.004;2023-11-19T15:19:04;2.20;;;0.77;;
83096;SDS011;72968;49.460;11.004;2023-11-19T15:21:35;1.83;;;1.00;;
83096;SDS011;72968;49.460;11.004;2023-11-19T15:24:09;1.40;;;0.73;;
83096;SDS011;72968;49.460;11.004;2023-11-19T15:26:40;2.13;;;0.82;;
83096;SDS011;72968;49.460;11.004;2023-11-19T15:29:12;1.88;;;1.10;;
83096;SDS011;72968;49.460;11.004;2023-11-19T15:31:43;1.38;;;0.80;;
83096;SDS011;72968;49.460;11.004;2023-11-19T15:34:15;1.98;;;1.13;;